Time;durP1;ratioP1;P1;durP2;ratioP2;P2;SDS_P1;SDS_P2;PMS_P1;PMS_P2;Temp;Humidity;BMP_temperature;BMP_pressure;BME280_temperature;BME280_humidity;BME280_pressure;Samples;Min_cycle;Max_cycle;Signal;HPM_P1;HPM_P2
2022/06/02 00:01:06;;;;;;;3.47;2.10;;;;;;;19.12;80.35;100415.76;1658231;86;21095;-60
2022/06/02 00:03:53;;;;;;;3.12;2.20;;;;;;;19.12;80.42;100415.76;1658703;86;21087;-58
2022/06/02 00:06:42;;;;;;;2.85;2.20;;;;;;;19.10;80.29;100418.49;1642064;86;21126;-58
2022/06/02 00:09:28;;;;;;;3.00;1.90;;;;;;;19.07;80.54;100413.45;1604370;86;21047;-57
2022/06/02 00:12:07;;;;;;;3.70;1.80;;;;;;;19.04;81.02;100413.41;1629010;86;21091;-58
2022/06/02 00:14:49;;;;;;;3.25;2.20;;;;;;;18.99;81.62;100407.77;1653259;86;21438;-59
2022/06/02 00:17:47;;;;;;;2.77;2.30;;;;;;;18.97;82.14;100407.18;1657517;86;21058;-58
2022/06/02 00:20:28;;;;;;;2.92;2.30;;;;;;;18.97;82.46;100414.13;1657270;86;21055;-58
2022/06/02 00:23:28;;;;;;;5.78;2.62;;;;;;;18.98;82.83;100422.20;1646009;86;21118;-58
2022/06/02 00:26:21;;;;;;;2.85;1.90;;;;;;;19.00;82.59;100418.62;1657335;86;21055;-58
2022/06/02 00:29:13;;;;;;;5.17;2.50;;;;;;;18.98;82.50;100422.75;1657234;86;21078;-58
2022/06/02 00:32:10;;;;;;;3.77;2.67;;;;;;;18.93;82.92;100425.44;1657231;86;21051;-60
2022/06/02 00:35:00;;;;;;;3.45;2.52;;;;;;;18.86;83.07;100420.05;1657182;86;21589;-58
2022/06/02 00:37:53;;;;;;;5.50;2.40;;;;;;;18.87;83.09;100421.73;1656878;86;21110;-58
2022/06/02 00:40:24;;;;;;;4.90;2.37;;;;;;;18.90;83.12;100420.39;1657276;86;21134;-58
2022/06/02 00:43:27;;;;;;;4.12;2.50;;;;;;;18.90;82.55;100424.56;1657186;86;21091;-59
2022/06/02 00:46:27;;;;;;;4.42;2.30;;;;;;;18.94;81.77;100422.96;1657193;86;21122;-57
2022/06/02 00:49:16;;;;;;;2.83;2.50;;;;;;;18.96;81.41;100426.33;1637831;86;21114;-58
2022/06/02 00:52:15;;;;;;;7.47;2.72;;;;;;;19.00;81.03;100428.89;1657347;86;21050;-58
2022/06/02 00:58:30;;;;;;;8.68;4.40;;;;;;;19.06;79.87;100440.37;1657285;86;21523;-57
2022/06/02 01:01:12;;;;;;;9.58;5.08;;;;;;;19.05;79.77;100438.70;1657234;86;21054;-59
2022/06/02 01:03:47;;;;;;;10.88;4.70;;;;;;;19.04;79.18;100434.23;1657110;86;21082;-57
2022/06/02 01:06:27;;;;;;;10.00;5.17;;;;;;;19.07;78.61;100449.00;1658231;86;21075;-57
2022/06/02 01:09:04;;;;;;;14.60;7.90;;;;;;;19.12;78.02;100444.92;1658569;86;21070;-58
2022/06/02 01:12:14;;;;;;;23.98;12.73;;;;;;;19.14;77.58;100444.13;1658403;86;21109;-58
2022/06/02 01:15:23;;;;;;;20.35;11.70;;;;;;;19.17;77.47;100442.23;1659551;86;21527;-58
2022/06/02 01:18:19;;;;;;;18.27;9.20;;;;;;;19.18;77.34;100486.97;1658594;86;21121;-57
2022/06/02 01:21:19;;;;;;;13.80;7.78;;;;;;;19.19;77.10;100455.86;1658441;86;21551;-57
2022/06/02 01:24:22;;;;;;;10.15;5.70;;;;;;;19.20;76.98;100457.00;1658513;86;21051;-58
2022/06/02 01:27:16;;;;;;;8.23;5.25;;;;;;;19.21;76.38;100464.78;1658470;86;21087;-58
2022/06/02 01:30:13;;;;;;;5.83;4.58;;;;;;;19.20;76.39;100467.27;1658511;86;21059;-57
2022/06/02 01:32:56;;;;;;;4.28;3.67;;;;;;;19.20;76.30;100466.72;1658624;86;21086;-58
2022/06/02 01:35:49;;;;;;;5.40;3.90;;;;;;;19.22;75.91;100460.36;1658640;86;21034;-57
2022/06/02 01:39:06;;;;;;;5.87;3.87;;;;;;;19.24;76.15;100455.94;1658550;86;21102;-57
2022/06/02 01:42:28;;;;;;;4.40;3.65;;;;;;;19.24;76.43;100451.78;1658640;85;21066;-60
2022/06/02 01:45:14;;;;;;;5.60;3.87;;;;;;;19.25;76.27;100448.75;1658606;86;21063;-59
2022/06/02 01:47:45;;;;;;;5.70;4.00;;;;;;;19.26;76.29;100443.48;1635212;88;21062;-58
2022/06/02 01:50:23;;;;;;;6.53;3.98;;;;;;;19.25;76.22;100446.52;1635328;88;21053;-58
2022/06/02 01:53:17;;;;;;;6.28;3.92;;;;;;;19.25;76.19;100452.91;1635441;87;21069;-57
2022/06/02 01:56:11;;;;;;;6.42;4.03;;;;;;;19.26;76.03;100451.81;1635396;88;21048;-57
2022/06/02 01:59:26;;;;;;;5.62;4.20;;;;;;;19.29;75.79;100457.41;1635349;88;21691;-58
2022/06/02 02:02:18;;;;;;;7.00;4.28;;;;;;;19.28;75.36;100454.34;1620375;88;21139;-58
2022/06/02 02:04:59;;;;;;;6.72;3.77;;;;;;;19.29;75.20;100456.86;1603637;88;21507;-58
2022/06/02 02:08:17;;;;;;;6.08;4.12;;;;;;;19.30;75.31;100453.54;1658724;86;21051;-57
2022/06/02 02:11:22;;;;;;;5.58;3.95;;;;;;;19.25;75.45;100456.23;1658506;86;21073;-60
2022/06/02 02:14:22;;;;;;;5.03;3.90;;;;;;;19.20;75.92;100450.60;1658451;86;21074;-58
2022/06/02 02:17:10;;;;;;;5.90;4.00;;;;;;;19.16;76.12;100449.42;1609016;89;21124;-58
2022/06/02 02:20:10;;;;;;;5.80;4.00;;;;;;;19.16;76.09;100448.88;1609442;89;21133;-58
2022/06/02 02:22:49;;;;;;;7.25;4.78;;;;;;;19.16;75.92;100448.03;1609187;89;21118;-57
2022/06/02 02:25:38;;;;;;;5.05;4.10;;;;;;;19.14;76.08;100444.67;1609340;89;21113;-57
2022/06/02 02:28:18;;;;;;;6.92;4.22;;;;;;;19.11;76.22;100442.39;1607387;89;21061;-63
2022/06/02 02:31:30;;;;;;;7.65;4.25;;;;;;;19.07;76.70;100437.05;1609225;89;21045;-58
2022/06/02 02:34:19;;;;;;;5.42;4.10;;;;;;;19.04;76.99;100437.02;1611529;86;21068;-58
2022/06/02 02:37:14;;;;;;;7.40;4.58;;;;;;;19.03;77.12;100439.49;1658198;86;21457;-59
2022/06/02 02:40:24;;;;;;;8.03;4.65;;;;;;;19.04;77.02;100438.41;1658421;86;21086;-58
2022/06/02 02:43:02;;;;;;;6.75;4.47;;;;;;;19.06;76.79;100444.55;1658425;86;21070;-58
2022/06/02 02:45:36;;;;;;;5.78;4.20;;;;;;;19.09;76.62;100452.38;1658161;86;21110;-58
2022/06/02 02:48:16;;;;;;;7.70;3.75;;;;;;;19.09;76.50;100450.98;1658364;86;21051;-57
2022/06/02 02:51:12;;;;;;;8.08;4.60;;;;;;;19.10;76.51;100461.55;1658692;86;21062;-58
2022/06/02 02:54:10;;;;;;;6.05;4.42;;;;;;;19.13;76.51;100460.49;1658525;86;21134;-59
2022/06/02 02:56:54;;;;;;;8.15;4.70;;;;;;;19.17;76.39;100457.50;1658300;86;21062;-58
2022/06/02 02:59:29;;;;;;;6.95;4.75;;;;;;;19.24;76.34;100455.94;1658153;86;21093;-58
2022/06/02 03:02:35;;;;;;;7.12;4.75;;;;;;;19.29;76.27;100449.08;1658517;86;21027;-58
2022/06/02 03:05:28;;;;;;;7.75;5.10;;;;;;;19.31;76.23;100456.61;1658317;86;21091;-58
2022/06/02 03:08:12;;;;;;;8.48;4.95;;;;;;;19.31;76.42;100464.95;1658589;86;21047;-58
2022/06/02 03:10:41;;;;;;;9.23;5.70;;;;;;;19.32;76.43;100468.86;1658573;86;21078;-59
2022/06/02 03:13:27;;;;;;;11.48;5.60;;;;;;;19.36;76.22;100464.19;1658055;86;21289;-58
2022/06/02 03:16:08;;;;;;;10.85;6.47;;;;;;;19.40;76.14;100465.36;1658210;86;21094;-57
2022/06/02 03:18:57;;;;;;;13.22;7.08;;;;;;;19.44;75.80;100469.31;1658337;86;21055;-58
2022/06/02 03:21:37;;;;;;;13.95;5.97;;;;;;;19.46;75.50;100462.95;1658745;86;21026;-59
2022/06/02 03:24:29;;;;;;;13.78;6.08;;;;;;;19.49;75.14;100475.79;1658434;86;21074;-59
2022/06/02 03:27:16;;;;;;;9.43;5.35;;;;;;;19.53;75.08;100477.58;1658198;85;21052;-57
2022/06/02 03:30:08;;;;;;;10.03;4.70;;;;;;;19.57;75.04;100491.26;1658558;86;21078;-58
2022/06/02 03:33:21;;;;;;;10.00;4.58;;;;;;;19.60;74.63;100483.25;1654377;86;21118;-58
2022/06/02 03:36:19;;;;;;;8.70;4.90;;;;;;;19.65;74.21;100485.81;1653919;86;21070;-58
2022/06/02 03:38:57;;;;;;;11.97;5.63;;;;;;;19.68;74.17;100484.75;1658680;86;21102;-58
2022/06/02 03:41:50;;;;;;;11.68;5.78;;;;;;;19.73;73.90;100490.39;1656930;86;21050;-58
2022/06/02 03:44:31;;;;;;;7.25;4.55;;;;;;;19.76;73.65;100491.27;1658448;85;21543;-57
2022/06/02 03:47:20;;;;;;;7.37;4.15;;;;;;;19.81;73.04;100496.90;1658572;86;21058;-58
2022/06/02 03:50:01;;;;;;;6.40;4.17;;;;;;;19.89;71.51;100502.02;1658464;86;21646;-57
2022/06/02 03:52:52;;;;;;;6.40;3.80;;;;;;;19.97;71.45;100501.28;1658540;86;21082;-58
2022/06/02 03:55:51;;;;;;;5.15;4.00;;;;;;;20.01;70.92;100501.06;1658620;86;21095;-57
2022/06/02 03:58:37;;;;;;;7.05;4.05;;;;;;;20.08;70.21;100501.16;1658614;85;21078;-59
2022/06/02 04:01:09;;;;;;;8.38;4.70;;;;;;;20.14;69.92;100497.89;1658415;86;21090;-59
2022/06/02 04:04:02;;;;;;;5.70;3.40;;;;;;;20.20;70.05;100488.55;1658673;86;21111;-58
2022/06/02 04:06:42;;;;;;;5.35;3.40;;;;;;;20.24;69.07;100491.10;1651263;86;21131;-58
2022/06/02 04:09:20;;;;;;;4.67;3.83;;;;;;;20.30;68.48;100501.19;1657466;86;21687;-58
2022/06/02 04:15:31;;;;;;;8.63;3.87;;;;;;;20.38;68.28;100499.34;1657569;86;20207;-59
2022/06/02 04:18:06;;;;;;;7.55;4.35;;;;;;;20.42;68.40;100493.58;1657293;86;21552;-58
2022/06/02 04:20:57;;;;;;;6.75;4.05;;;;;;;20.47;67.68;100499.20;1657467;86;21102;-59
2022/06/02 04:24:00;;;;;;;6.95;4.10;;;;;;;20.51;67.56;100499.52;1657296;86;21084;-59
2022/06/02 04:26:45;;;;;;;12.85;4.95;;;;;;;20.56;67.57;100506.54;1657502;86;21086;-58
2022/06/02 04:29:55;;;;;;;5.90;3.52;;;;;;;20.62;67.22;100511.62;1657148;86;21051;-58
2022/06/02 04:32:40;;;;;;;6.58;3.50;;;;;;;20.68;67.02;100507.78;1600078;89;21097;-59
2022/06/02 04:35:29;;;;;;;6.87;3.98;;;;;;;20.76;67.37;100507.31;1599790;90;21603;-58
2022/06/02 04:38:19;;;;;;;6.90;4.30;;;;;;;20.87;67.15;100510.52;1600052;90;21026;-58
2022/06/02 04:41:17;;;;;;;7.90;3.85;;;;;;;20.97;66.85;100508.39;1600056;90;21086;-58
2022/06/02 04:44:04;;;;;;;4.80;3.75;;;;;;;21.05;65.98;100508.75;1600476;90;21147;-60
2022/06/02 04:47:04;;;;;;;5.47;3.77;;;;;;;21.10;65.57;100514.92;1600034;90;21085;-62
2022/06/02 04:49:44;;;;;;;4.28;3.20;;;;;;;21.18;65.52;100513.05;1600090;90;21070;-58
2022/06/02 04:52:46;;;;;;;7.22;3.77;;;;;;;21.32;64.97;100505.11;1600343;90;21105;-57
2022/06/02 04:55:43;;;;;;;7.53;3.75;;;;;;;21.42;64.34;100489.31;1600010;90;21470;-58
2022/06/02 04:58:33;;;;;;;6.10;3.52;;;;;;;21.64;64.29;100495.34;1600452;90;21527;-58
2022/06/02 05:01:45;;;;;;;8.68;3.60;;;;;;;21.86;62.89;100487.67;1600066;90;21055;-59
2022/06/02 05:04:37;;;;;;;6.35;4.03;;;;;;;22.09;61.89;100482.25;1600351;90;21162;-60
2022/06/02 05:07:20;;;;;;;5.60;3.33;;;;;;;22.34;61.40;100493.55;1612394;86;21551;-59
2022/06/02 05:10:21;;;;;;;4.75;3.00;;;;;;;22.61;60.43;100486.38;1668029;86;21486;-58
2022/06/02 05:13:46;;;;;;;5.60;3.80;;;;;;;22.80;59.17;100482.57;1668046;86;21069;-59
2022/06/02 05:16:42;;;;;;;5.45;3.35;;;;;;;22.97;58.43;100473.93;1668025;85;21128;-59
2022/06/02 05:19:45;;;;;;;5.42;3.25;;;;;;;23.13;58.56;100464.99;1667951;86;21078;-63
2022/06/02 05:22:57;;;;;;;6.70;3.85;;;;;;;23.30;57.92;100472.53;1667991;86;21066;-59
2022/06/02 05:25:50;;;;;;;5.70;3.42;;;;;;;23.50;57.15;100472.55;1668050;86;21022;-60
2022/06/02 05:28:36;;;;;;;5.62;3.40;;;;;;;23.85;56.57;100465.23;1667934;86;21090;-59
2022/06/02 05:31:20;;;;;;;5.72;3.10;;;;;;;24.25;55.44;100470.72;1667657;86;21478;-61
2022/06/02 05:34:38;;;;;;;12.65;3.55;;;;;;;24.60;54.71;100464.69;1667963;86;21062;-59
2022/06/02 05:37:27;;;;;;;4.30;3.08;;;;;;;24.85;53.91;100472.13;1667882;86;21204;-60
2022/06/02 05:40:17;;;;;;;4.05;2.90;;;;;;;25.22;52.98;100475.80;1667165;85;21054;-58
2022/06/02 05:43:30;;;;;;;5.25;2.85;;;;;;;25.58;51.40;100480.55;1667778;86;21097;-60
2022/06/02 05:46:29;;;;;;;6.37;3.00;;;;;;;25.83;50.39;100487.33;1667916;86;21049;-59
2022/06/02 05:49:17;;;;;;;4.45;3.10;;;;;;;26.11;49.93;100473.57;1667841;86;21115;-59
2022/06/02 05:52:24;;;;;;;4.12;2.70;;;;;;;26.33;48.32;100472.47;1667408;86;21125;-61
2022/06/02 05:55:36;;;;;;;5.05;3.27;;;;;;;26.50;48.30;100471.97;1667452;86;21122;-58
2022/06/02 05:58:21;;;;;;;5.30;3.02;;;;;;;26.70;47.76;100471.71;1668015;86;21054;-59
2022/06/02 06:01:14;;;;;;;5.75;3.85;;;;;;;26.79;47.73;100477.48;1667570;86;21106;-60
2022/06/02 06:04:10;;;;;;;4.92;3.25;;;;;;;26.92;47.24;100480.11;1667801;86;21482;-62
2022/06/02 06:06:51;;;;;;;5.37;3.33;;;;;;;26.99;47.42;100483.41;1665611;84;21134;-60
2022/06/02 06:09:43;;;;;;;4.83;3.10;;;;;;;27.26;46.79;100486.33;1658130;86;21507;-58
2022/06/02 06:12:32;;;;;;;5.62;3.50;;;;;;;27.44;46.57;100492.52;1658204;86;21011;-61
2022/06/02 06:15:08;;;;;;;7.22;3.72;;;;;;;27.61;46.43;100498.17;1647631;85;21497;-59
2022/06/02 06:18:17;;;;;;;5.37;3.50;;;;;;;27.63;46.27;100493.07;1658594;86;21234;-59
2022/06/02 06:21:01;;;;;;;;;;;;;;;27.67;46.07;100490.73;1660819;86;21047;-58
2022/06/02 06:23:49;;;;;;;5.45;3.62;;;;;;;27.72;46.14;100486.99;1658483;86;20200;-61
2022/06/02 06:26:57;;;;;;;10.67;4.00;;;;;;;27.81;45.71;100485.70;1658401;85;21027;-58
2022/06/02 06:29:38;;;;;;;;;;;;;;;27.75;46.11;100488.61;1633447;86;21018;-60
2022/06/02 06:32:35;;;;;;;9.08;4.30;;;;;;;27.82;46.04;100493.84;1652457;86;20232;-59
2022/06/02 06:35:31;;;;;;;8.45;6.50;;;;;;;27.79;46.20;100501.50;1658149;86;21058;-60
2022/06/02 06:38:18;;;;;;;6.05;4.00;;;;;;;27.58;46.82;100502.98;1658535;85;21063;-59
2022/06/02 06:41:05;;;;;;;8.45;4.47;;;;;;;27.80;45.92;100497.54;1658295;86;21419;-59
2022/06/02 06:43:49;;;;;;;5.72;4.00;;;;;;;27.86;45.49;100502.50;1658323;86;21503;-57
2022/06/02 06:46:26;;;;;;;9.10;4.62;;;;;;;27.88;45.64;100499.64;1658501;86;21518;-58
2022/06/02 06:49:09;;;;;;;5.37;4.00;;;;;;;27.80;45.99;100510.21;1658421;86;21059;-60
2022/06/02 06:52:05;;;;;;;5.97;3.98;;;;;;;27.95;45.98;100508.52;1658402;86;21576;-59
2022/06/02 06:55:00;;;;;;;11.70;5.80;;;;;;;28.14;45.78;100513.26;1658754;86;21074;-60
2022/06/02 06:58:23;;;;;;;5.08;3.85;;;;;;;28.33;45.03;100510.63;1658459;86;21134;-60
2022/06/02 07:01:16;;;;;;;12.82;4.28;;;;;;;28.49;44.44;100508.31;1658601;85;21359;-60
2022/06/02 07:03:57;;;;;;;11.45;4.42;;;;;;;28.57;43.90;100506.17;1658579;86;21034;-59
2022/06/02 07:06:56;;;;;;;4.25;3.62;;;;;;;28.64;44.40;100506.61;1658245;86;21079;-58
2022/06/02 07:09:34;;;;;;;6.40;3.80;;;;;;;28.85;42.82;100511.81;1658614;86;21487;-59
2022/06/02 07:15:34;;;;;;;5.33;3.87;;;;;;;28.85;43.13;100519.70;1658361;86;21038;-60
2022/06/02 07:18:43;;;;;;;7.47;4.17;;;;;;;29.01;42.68;100523.84;1658614;86;21462;-59
2022/06/02 07:21:30;;;;;;;;;;;;;;;29.13;42.71;100517.63;1661156;86;21088;-60
2022/06/02 07:24:11;;;;;;;4.97;3.83;;;;;;;29.35;41.59;100526.15;1658485;85;20213;-59
2022/06/02 07:27:15;;;;;;;6.92;4.20;;;;;;;29.25;41.63;100518.48;1658473;86;21581;-60
2022/06/02 07:30:28;;;;;;;8.35;4.45;;;;;;;29.28;41.93;100522.94;1658354;86;21062;-58
2022/06/02 07:33:18;;;;;;;8.35;3.92;;;;;;;29.44;42.24;100524.84;1658442;86;21494;-59
2022/06/02 07:35:53;;;;;;;7.30;3.90;;;;;;;29.59;41.39;100530.67;1658493;86;21087;-60
2022/06/02 07:38:47;;;;;;;10.68;3.95;;;;;;;29.73;41.25;100539.90;1658417;86;21517;-59
2022/06/02 07:41:46;;;;;;;6.33;4.00;;;;;;;29.78;41.17;100538.36;1658354;86;21442;-59
2022/06/02 07:44:37;;;;;;;4.85;3.52;;;;;;;29.86;41.18;100538.16;1658406;86;21043;-59
2022/06/02 07:47:33;;;;;;;4.85;3.60;;;;;;;29.99;40.20;100541.50;1657602;86;21159;-63
2022/06/02 07:50:24;;;;;;;7.25;3.70;;;;;;;30.05;39.84;100539.39;1658313;86;21479;-59
2022/06/02 07:53:15;;;;;;;6.58;3.98;;;;;;;29.92;40.19;100539.13;1658150;86;21815;-60
2022/06/02 07:56:14;;;;;;;6.85;3.90;;;;;;;30.16;39.93;100537.95;1673826;84;21059;-62
2022/06/02 07:58:57;;;;;;;6.75;4.20;;;;;;;30.43;38.80;100540.56;1680448;85;21501;-60
2022/06/02 08:02:00;;;;;;;4.80;3.58;;;;;;;30.32;39.27;100546.84;1660622;86;21476;-60
2022/06/02 08:04:46;;;;;;;5.58;3.72;;;;;;;30.33;39.26;100543.68;1677840;85;21081;-61
2022/06/02 08:07:26;;;;;;;5.95;4.10;;;;;;;30.52;39.17;100542.83;1680294;84;21088;-61
2022/06/02 08:10:18;;;;;;;5.55;3.62;;;;;;;30.76;38.93;100540.21;1685214;85;21030;-62
2022/06/02 08:13:11;;;;;;;9.83;3.90;;;;;;;31.13;38.21;100545.84;1670793;85;21038;-64
2022/06/02 08:16:10;;;;;;;5.87;3.60;;;;;;;31.39;37.53;100545.91;1666259;86;21070;-61
2022/06/02 08:18:57;;;;;;;4.75;3.60;;;;;;;31.32;37.14;100549.82;1583384;90;21524;-62
2022/06/02 08:21:48;;;;;;;4.92;3.50;;;;;;;31.32;37.31;100551.23;1554046;92;21118;-61
2022/06/02 08:24:54;;;;;;;4.65;3.50;;;;;;;31.36;37.14;100553.66;1554142;92;21086;-61
2022/06/02 08:27:45;;;;;;;4.30;3.60;;;;;;;31.33;37.31;100555.73;1554318;92;21553;-60
2022/06/02 08:30:28;;;;;;;6.37;3.33;;;;;;;31.29;36.85;100547.66;1613267;89;21069;-62
2022/06/02 08:33:26;;;;;;;6.33;3.30;;;;;;;31.20;36.30;100545.63;1623759;88;21156;-62
2022/06/02 08:36:04;;;;;;;7.22;3.30;;;;;;;31.12;35.41;100549.25;1620459;86;21033;-61
2022/06/02 08:39:21;;;;;;;4.33;3.70;;;;;;;31.09;35.80;100545.67;1667755;86;21097;-61
2022/06/02 08:42:20;;;;;;;8.98;3.77;;;;;;;31.24;36.83;100550.66;1667649;86;21556;-60
2022/06/02 08:45:03;;;;;;;4.97;3.60;;;;;;;31.31;36.30;100553.23;1668179;86;21041;-61
2022/06/02 08:48:05;;;;;;;9.65;4.70;;;;;;;31.13;36.30;100543.84;1668298;86;21479;-61
2022/06/02 08:50:59;;;;;;;7.30;3.83;;;;;;;30.98;36.91;100542.91;1687524;85;21096;-60
2022/06/02 08:53:57;;;;;;;4.28;3.75;;;;;;;31.01;36.33;100549.33;1689983;85;21033;-61
2022/06/02 08:57:12;;;;;;;7.45;3.40;;;;;;;31.07;36.76;100555.08;1662442;86;21105;-63
2022/06/02 09:00:18;;;;;;;5.70;4.17;;;;;;;31.14;36.00;100551.17;1668620;86;21053;-64
2022/06/02 09:03:34;;;;;;;5.78;4.22;;;;;;;31.30;35.56;100552.16;1668656;86;21149;-63
2022/06/02 09:06:39;;;;;;;8.63;4.72;;;;;;;31.04;36.55;100539.34;1627473;88;21543;-61
2022/06/02 09:09:19;;;;;;;6.92;4.75;;;;;;;30.84;37.92;100536.56;1627222;88;21088;-61
2022/06/02 09:12:02;;;;;;;8.33;4.28;;;;;;;30.79;38.07;100535.31;1646074;87;21102;-61
2022/06/02 09:15:03;;;;;;;7.90;4.72;;;;;;;30.72;38.10;100543.45;1650001;87;22203;-61
2022/06/02 09:17:49;;;;;;;7.20;4.58;;;;;;;30.54;38.54;100532.03;1620121;87;21117;-62
2022/06/02 09:20:48;;;;;;;5.15;4.65;;;;;;;30.38;38.81;100532.80;1610262;88;21514;-60
2022/06/02 09:23:46;;;;;;;6.17;4.62;;;;;;;30.19;39.34;100532.48;1647110;87;21051;-63
2022/06/02 09:26:46;;;;;;;8.43;4.92;;;;;;;30.01;39.71;100537.77;1648883;87;21091;-60
2022/06/02 09:29:26;;;;;;;7.55;4.55;;;;;;;29.76;40.61;100536.43;1646276;87;21486;-63
2022/06/02 09:32:09;;;;;;;7.17;4.90;;;;;;;29.65;40.94;100536.44;1613304;88;21094;-60
2022/06/02 09:35:02;;;;;;;5.75;5.00;;;;;;;29.63;41.06;100527.46;1668203;85;21041;-61
2022/06/02 09:38:03;;;;;;;6.30;5.00;;;;;;;29.54;40.44;100530.23;1668313;85;21228;-63
2022/06/02 09:40:56;;;;;;;6.42;5.20;;;;;;;29.44;40.86;100526.83;1668198;85;21120;-61
2022/06/02 09:43:55;;;;;;;6.47;4.83;;;;;;;29.42;41.51;100522.05;1668243;86;21061;-61
2022/06/02 09:46:48;;;;;;;10.32;5.25;;;;;;;29.39;41.79;100519.86;1668217;85;21300;-60
2022/06/02 09:49:35;;;;;;;6.70;4.87;;;;;;;29.28;41.36;100517.88;1668212;85;21064;-61
2022/06/02 09:52:27;;;;;;;5.50;4.80;;;;;;;29.22;41.76;100506.42;1668479;85;21442;-61
2022/06/02 09:55:34;;;;;;;7.25;4.47;;;;;;;29.25;41.03;100509.44;1668294;85;21037;-62
2022/06/02 09:58:45;;;;;;;7.50;4.58;;;;;;;29.27;40.28;100508.56;1641732;87;21075;-62
2022/06/02 10:01:49;;;;;;;7.37;4.60;;;;;;;29.39;40.27;100507.99;1641493;87;21457;-62
2022/06/02 10:05:03;;;;;;;8.40;4.10;;;;;;;29.39;40.27;100507.99;1666980;86;21041;-62
2022/06/02 10:07:59;;;;;;;5.15;3.90;;;;;;;29.34;39.33;100505.30;1656454;85;21062;-61
2022/06/02 10:10:56;;;;;;;5.15;3.92;;;;;;;29.21;39.52;100492.88;1651427;86;21532;-62
2022/06/02 10:14:06;;;;;;;5.78;3.90;;;;;;;29.17;38.87;100490.44;1651445;86;21558;-61
2022/06/02 10:16:55;;;;;;;5.33;4.00;;;;;;;29.14;38.82;100492.50;1651467;86;21098;-62
2022/06/02 10:19:54;;;;;;;4.80;3.77;;;;;;;29.13;39.04;100491.41;1651551;86;21119;-62
2022/06/02 10:22:49;;;;;;;7.20;4.40;;;;;;;29.16;38.73;100488.78;1651635;86;21098;-61
2022/06/02 10:25:34;;;;;;;5.97;4.10;;;;;;;29.12;38.85;100474.22;1639572;86;21480;-61
2022/06/02 10:28:31;;;;;;;8.10;4.37;;;;;;;29.22;38.20;100459.27;1638965;87;21098;-62
2022/06/02 10:31:51;;;;;;;7.55;4.20;;;;;;;29.22;38.20;100459.27;1651604;86;21050;-63
2022/06/02 10:34:40;;;;;;;7.90;3.98;;;;;;;29.25;38.52;100458.63;1761781;81;21061;-62
2022/06/02 10:37:40;;;;;;;5.87;3.80;;;;;;;29.29;37.69;100453.20;1762204;81;21058;-63
2022/06/02 10:40:26;;;;;;;7.45;4.05;;;;;;;29.27;37.80;100442.23;1762033;80;21065;-62
2022/06/02 10:43:17;;;;;;;7.92;4.15;;;;;;;29.25;37.99;100436.05;1761951;81;21062;-62
2022/06/02 10:46:21;;;;;;;11.03;4.30;;;;;;;29.25;38.27;100432.39;1759915;81;21058;-64
2022/06/02 10:49:14;;;;;;;5.78;3.70;;;;;;;29.26;37.73;100434.06;1761582;81;21007;-64
2022/06/02 10:52:23;;;;;;;7.50;3.80;;;;;;;29.11;38.13;100427.39;1762040;80;21077;-64
2022/06/02 10:55:20;;;;;;;8.25;3.90;;;;;;;29.01;38.46;100426.50;1762154;81;21061;-63
2022/06/02 10:58:19;;;;;;;5.37;3.83;;;;;;;29.09;37.63;100411.37;1783322;80;21054;-68
2022/06/02 11:01:31;;;;;;;6.92;3.90;;;;;;;29.09;37.63;100411.37;1788476;80;21010;-67
2022/06/02 11:04:36;;;;;;;6.53;4.05;;;;;;;29.08;37.88;100411.94;1730167;82;21015;-68
2022/06/02 11:07:42;;;;;;;6.53;3.92;;;;;;;29.01;37.86;100403.93;1753262;82;21011;-68
2022/06/02 11:10:30;;;;;;;9.90;3.92;;;;;;;28.98;37.44;100405.14;1753855;82;21030;-68
2022/06/02 11:13:26;;;;;;;8.73;3.90;;;;;;;28.90;37.58;100394.05;1774086;81;21023;-68
2022/06/02 11:16:30;;;;;;;5.35;3.20;;;;;;;28.92;38.29;100389.50;1777506;81;21463;-68
2022/06/02 11:19:05;;;;;;;7.40;3.58;;;;;;;28.97;37.60;100389.37;1777903;81;21038;-69
2022/06/02 11:22:16;;;;;;;6.10;3.50;;;;;;;28.99;37.18;100396.36;1777577;81;21081;-68
2022/06/02 11:25:29;;;;;;;7.12;3.55;;;;;;;28.95;37.35;100390.27;1777549;81;21451;-68
2022/06/02 11:28:20;;;;;;;7.00;3.42;;;;;;;28.94;37.37;100391.42;1778206;80;21015;-68
2022/06/02 11:31:45;;;;;;;9.10;3.65;;;;;;;29.01;37.80;100387.58;1777895;81;21051;-69
2022/06/02 11:34:25;;;;;;;4.75;3.47;;;;;;;29.03;37.41;100377.64;1777891;81;21042;-69
2022/06/02 11:37:27;;;;;;;6.03;3.77;;;;;;;29.08;36.97;100379.49;1777780;81;21093;-69
2022/06/02 11:40:07;;;;;;;5.85;3.33;;;;;;;29.06;37.13;100372.50;1777594;81;21015;-68
2022/06/02 11:42:49;;;;;;;12.10;9.10;;;;;;;29.08;37.17;100368.78;1777729;81;21493;-69
2022/06/02 11:45:51;;;;;;;5.83;3.62;;;;;;;29.09;37.27;100368.46;1777712;81;21062;-68
2022/06/02 11:49:10;;;;;;;4.47;3.35;;;;;;;29.07;36.97;100359.48;1777811;81;21007;-68
2022/06/02 11:52:01;;;;;;;8.30;3.87;;;;;;;28.97;37.10;100359.17;1778067;80;21046;-67
2022/06/02 11:55:17;;;;;;;7.00;3.37;;;;;;;28.87;37.71;100351.55;1777490;81;20987;-67
2022/06/02 11:58:16;;;;;;;4.87;3.05;;;;;;;28.90;37.79;100360.20;1725398;81;21628;-66
2022/06/02 12:01:24;;;;;;;9.15;3.60;;;;;;;28.94;37.69;100352.77;1733223;81;21074;-66
2022/06/02 12:04:17;;;;;;;9.55;3.52;;;;;;;28.91;37.78;100349.75;1773811;81;21263;-67
2022/06/02 12:07:15;;;;;;;7.30;3.37;;;;;;;28.91;38.00;100349.17;1777563;80;21046;-66
2022/06/02 12:10:09;;;;;;;7.80;3.30;;;;;;;28.96;37.90;100349.63;1777531;81;20995;-65
2022/06/02 12:13:02;;;;;;;6.95;3.30;;;;;;;29.02;37.70;100349.75;1777619;80;21003;-66
2022/06/02 12:15:58;;;;;;;5.35;3.50;;;;;;;29.01;37.74;100343.27;1763874;81;21045;-66
2022/06/02 12:19:09;;;;;;;8.85;3.42;;;;;;;28.97;38.04;100341.41;1761417;81;21031;-67
2022/06/02 12:22:06;;;;;;;7.08;3.58;;;;;;;28.96;38.21;100339.17;1696577;84;21054;-66
2022/06/02 12:24:53;;;;;;;6.72;3.20;;;;;;;28.99;37.76;100345.58;1715206;82;21099;-67
2022/06/02 12:28:08;;;;;;;6.47;3.25;;;;;;;28.87;37.90;100341.10;1725503;83;21083;-66
2022/06/02 12:30:59;;;;;;;6.42;3.30;;;;;;;28.87;37.90;100341.10;1698256;83;21518;-66
2022/06/02 12:33:54;;;;;;;9.15;3.40;;;;;;;28.83;37.80;100343.45;1690641;85;21071;-65
2022/06/02 12:36:37;;;;;;;6.03;3.25;;;;;;;28.82;38.02;100342.61;1661493;85;21093;-65
2022/06/02 12:39:39;;;;;;;8.55;3.40;;;;;;;28.82;37.93;100340.37;1697279;83;21028;-69
2022/06/02 12:42:31;;;;;;;5.65;3.10;;;;;;;28.80;38.28;100337.87;1761752;80;21094;-66
2022/06/02 12:45:52;;;;;;;5.67;3.15;;;;;;;28.84;38.42;100340.33;1761785;81;21065;-66
2022/06/02 12:48:32;;;;;;;15.85;7.22;;;;;;;28.86;38.34;100330.14;1761672;81;21027;-67
2022/06/02 12:51:41;;;;;;;5.20;3.33;;;;;;;28.85;38.30;100335.53;1730401;81;21030;-66
2022/06/02 12:55:02;;;;;;;7.12;3.30;;;;;;;28.82;37.99;100331.91;1761875;81;21018;-68
2022/06/02 12:57:39;;;;;;;6.08;2.95;;;;;;;28.87;37.76;100327.58;1755828;81;21043;-64
2022/06/02 13:00:50;;;;;;;5.22;2.90;;;;;;;28.92;37.72;100314.17;1772749;81;21047;-64
2022/06/02 13:03:28;;;;;;;5.78;3.37;;;;;;;28.92;37.60;100310.52;1747668;81;21038;-63
2022/06/02 13:06:43;;;;;;;6.65;3.17;;;;;;;28.99;37.09;100297.62;1762071;81;21050;-62
2022/06/02 13:09:43;;;;;;;7.45;3.30;;;;;;;29.04;37.38;100286.20;1710106;84;21149;-63
2022/06/02 13:12:38;;;;;;;5.42;3.00;;;;;;;29.14;37.38;100281.42;1757983;81;21034;-63
2022/06/02 13:15:24;;;;;;;5.25;3.27;;;;;;;29.19;37.38;100293.98;1762385;81;21034;-63
2022/06/02 13:18:31;;;;;;;8.88;3.75;;;;;;;29.13;37.60;100282.00;1761850;81;21476;-64
2022/06/02 13:21:27;;;;;;;8.18;3.33;;;;;;;29.10;37.78;100279.00;1762174;80;21110;-64
2022/06/02 13:24:23;;;;;;;6.97;3.27;;;;;;;29.08;37.85;100277.91;1762166;80;21081;-62
2022/06/02 13:26:58;;;;;;;4.42;3.50;;;;;;;29.11;37.77;100284.32;1731494;81;21787;-63
2022/06/02 13:30:15;;;;;;;7.90;3.22;;;;;;;29.13;37.76;100265.65;1761984;80;21567;-63
2022/06/02 13:33:11;;;;;;;8.43;3.25;;;;;;;29.16;37.89;100268.66;1743015;81;21082;-63
2022/06/02 13:36:09;;;;;;;8.25;3.30;;;;;;;29.24;37.83;100262.80;1753259;81;21038;-63
2022/06/02 13:39:08;;;;;;;5.80;2.90;;;;;;;29.31;37.79;100263.19;1733674;81;21037;-61